createdAt,value
2023-05-12T00:01:24.889Z,61.69
2023-05-12T00:03:53.852Z,62.59
2023-05-12T00:06:21.103Z,62.23
2023-05-12T00:08:47.886Z,62.45
2023-05-12T00:11:14.710Z,63.05
2023-05-12T00:13:41.438Z,63.18
2023-05-12T00:16:08.171Z,64.46
2023-05-12T00:18:34.983Z,65.78
2023-05-12T00:21:01.746Z,67.21
2023-05-12T00:23:28.435Z,66.29
2023-05-12T00:25:55.144Z,65.72
2023-05-12T00:28:22.137Z,65.46
2023-05-12T00:30:48.791Z,65.10
2023-05-12T00:33:17.164Z,64.83
2023-05-12T00:35:47.074Z,64.61
2023-05-12T00:38:14.024Z,63.86
2023-05-12T00:40:41.366Z,63.55
2023-05-12T00:43:08.662Z,63.25
2023-05-12T00:45:35.950Z,63.85
2023-05-12T00:48:04.520Z,64.27
2023-05-12T00:50:31.530Z,64.09
2023-05-12T00:53:00.818Z,63.91
2023-05-12T00:55:29.624Z,62.84
2023-05-12T00:57:56.396Z,62.86
2023-05-12T01:00:23.565Z,62.99
2023-05-12T01:02:50.492Z,62.61
2023-05-12T01:05:18.042Z,62.62
2023-05-12T01:07:46.909Z,62.20
2023-05-12T01:10:21.665Z,62.39
2023-05-12T01:12:48.862Z,62.58
2023-05-12T01:15:16.803Z,62.61
2023-05-12T01:17:50.441Z,62.71
2023-05-12T01:20:21.755Z,62.29
2023-05-12T01:22:50.014Z,62.23
2023-05-12T01:25:17.308Z,62.91
2023-05-12T01:27:46.514Z,62.17
2023-05-12T01:30:18.422Z,62.55
2023-05-12T01:32:45.669Z,62.82
2023-05-12T01:35:13.025Z,63.24
2023-05-12T01:37:46.476Z,63.51
2023-05-12T01:40:13.560Z,64.73
2023-05-12T01:42:42.364Z,65.05
2023-05-12T01:45:10.957Z,65.51
2023-05-12T01:47:38.141Z,65.92
2023-05-12T01:50:10.287Z,66.69
2023-05-12T01:52:37.493Z,66.26
2023-05-12T01:55:09.139Z,66.85
2023-05-12T01:57:56.121Z,67.59
2023-05-12T02:00:23.524Z,68.78
2023-05-12T02:02:53.496Z,69.59
2023-05-12T02:05:20.338Z,70.06
2023-05-12T02:07:49.290Z,69.35
2023-05-12T02:10:16.914Z,68.83
2023-05-12T02:12:44.236Z,68.44
2023-05-12T02:15:11.519Z,67.93
2023-05-12T02:17:43.045Z,68.07
2023-05-12T02:20:12.357Z,68.19
2023-05-12T02:22:39.192Z,68.24
2023-05-12T02:25:06.550Z,68.52
2023-05-12T02:27:33.637Z,68.09
2023-05-12T02:30:00.727Z,67.81
2023-05-12T02:32:30.819Z,68.54
2023-05-12T02:34:57.543Z,68.76
2023-05-12T02:37:24.287Z,67.39
2023-05-12T02:39:51.048Z,67.20
2023-05-12T02:42:18.763Z,66.36
2023-05-12T02:44:45.550Z,66.37
2023-05-12T02:47:12.300Z,65.74
2023-05-12T02:49:39.068Z,64.36
2023-05-12T02:52:06.397Z,63.99
2023-05-12T02:54:33.184Z,64.40
2023-05-12T02:57:04.890Z,64.76
2023-05-12T02:59:32.255Z,64.87
2023-05-12T03:01:58.964Z,64.87
2023-05-12T03:04:25.758Z,64.80
2023-05-12T03:06:52.500Z,65.06
2023-05-12T03:09:19.602Z,64.96
2023-05-12T03:11:46.450Z,64.61
2023-05-12T03:14:13.214Z,64.22
2023-05-12T03:16:40.422Z,63.45
2023-05-12T03:19:07.425Z,63.40
2023-05-12T03:21:34.460Z,63.12
2023-05-12T03:24:01.905Z,63.39
2023-05-12T03:26:28.709Z,63.62
2023-05-12T03:28:55.708Z,63.11
2023-05-12T03:31:22.581Z,62.97
2023-05-12T03:33:49.384Z,62.66
2023-05-12T03:36:16.313Z,62.61
2023-05-12T03:38:42.998Z,62.65
2023-05-12T03:41:09.643Z,62.35
2023-05-12T03:43:36.708Z,62.56
2023-05-12T03:46:03.970Z,62.05
2023-05-12T03:48:30.894Z,62.65
2023-05-12T03:50:57.860Z,62.55
2023-05-12T03:53:24.651Z,65.32
2023-05-12T03:55:51.449Z,65.28
2023-05-12T03:58:18.446Z,64.81
2023-05-12T04:00:45.378Z,65.41
2023-05-12T04:03:12.198Z,67.13
2023-05-12T04:05:39.715Z,66.71
2023-05-12T04:08:06.476Z,65.33
2023-05-12T04:10:33.200Z,65.24
2023-05-12T04:12:59.836Z,65.21
2023-05-12T04:15:26.742Z,64.11
2023-05-12T04:17:53.588Z,64.71
2023-05-12T04:20:20.687Z,64.79
2023-05-12T04:22:47.721Z,64.58
2023-05-12T04:25:14.706Z,64.62
2023-05-12T04:27:41.466Z,64.03
2023-05-12T04:30:08.833Z,64.13
2023-05-12T04:32:37.418Z,63.94
2023-05-12T04:35:05.285Z,63.67
2023-05-12T04:37:32.305Z,63.47
2023-05-12T04:39:59.071Z,63.51
2023-05-12T04:42:26.779Z,63.46
2023-05-12T04:44:53.777Z,63.76
2023-05-12T04:47:20.525Z,63.97
2023-05-12T04:49:47.253Z,64.87
2023-05-12T04:52:14.712Z,65.38
2023-05-12T04:54:41.901Z,65.60
2023-05-12T04:57:08.592Z,65.53
2023-05-12T04:59:36.177Z,65.40
2023-05-12T05:02:03.010Z,64.94
2023-05-12T05:04:29.847Z,64.66
2023-05-12T05:06:56.602Z,64.26
2023-05-12T05:09:24.311Z,64.57
2023-05-12T05:11:53.106Z,64.57
2023-05-12T05:14:22.271Z,64.18
2023-05-12T05:16:49.111Z,64.68
2023-05-12T05:19:24.427Z,64.29
2023-05-12T05:21:57.005Z,63.99
2023-05-12T05:24:23.889Z,64.01
2023-05-12T05:26:50.677Z,63.07
2023-05-12T05:29:17.687Z,62.62
2023-05-12T05:31:44.517Z,62.30
2023-05-12T05:34:11.359Z,62.30
2023-05-12T05:36:38.036Z,62.09
2023-05-12T05:39:05.079Z,61.91
2023-05-12T05:41:31.939Z,61.99
2023-05-12T05:43:59.564Z,62.00
2023-05-12T05:46:26.445Z,62.00
2023-05-12T05:48:53.129Z,62.50
2023-05-12T05:51:20.121Z,62.03
2023-05-12T05:53:46.960Z,61.87
2023-05-12T05:56:14.974Z,61.78
2023-05-12T05:58:41.643Z,61.62
2023-05-12T06:01:08.426Z,61.32
2023-05-12T06:03:36.033Z,62.24
2023-05-12T06:06:03.038Z,61.93
2023-05-12T06:08:29.717Z,61.23
2023-05-12T06:10:56.477Z,61.32
2023-05-12T06:13:23.094Z,60.96
2023-05-12T06:15:49.831Z,60.69
2023-05-12T06:18:16.753Z,60.92
2023-05-12T06:20:43.472Z,60.83
2023-05-12T06:23:10.809Z,60.68
2023-05-12T06:25:38.818Z,60.84
2023-05-12T06:28:05.766Z,59.83
2023-05-12T06:30:33.793Z,60.62
2023-05-12T06:33:00.870Z,60.31
2023-05-12T06:35:28.163Z,60.78
2023-05-12T06:37:54.870Z,60.38
2023-05-12T06:40:21.614Z,60.64
2023-05-12T06:42:48.292Z,59.75
2023-05-12T06:45:19.978Z,59.87
2023-05-12T06:47:47.007Z,60.00
2023-05-12T06:50:13.750Z,60.29
2023-05-12T06:52:40.642Z,59.75
2023-05-12T06:55:07.747Z,59.91
2023-05-12T06:57:34.566Z,60.86
2023-05-12T07:00:03.238Z,62.02
2023-05-12T07:02:30.892Z,61.03
2023-05-12T07:04:57.965Z,60.87
2023-05-12T07:07:24.714Z,59.72
2023-05-12T07:09:51.439Z,60.66
2023-05-12T07:12:18.370Z,60.37
2023-05-12T07:14:45.031Z,60.14
2023-05-12T07:17:11.735Z,59.71
2023-05-12T07:19:40.260Z,59.64
2023-05-12T07:22:07.086Z,59.49
2023-05-12T07:24:34.057Z,59.60
2023-05-12T07:27:00.887Z,59.10
2023-05-12T07:29:27.572Z,59.23
2023-05-12T07:31:54.358Z,59.95
2023-05-12T07:34:21.261Z,59.21
2023-05-12T07:36:47.917Z,58.59
2023-05-12T07:39:19.127Z,59.74
2023-05-12T07:41:47.907Z,59.36
2023-05-12T07:44:14.718Z,59.16
2023-05-12T07:46:41.558Z,59.36
2023-05-12T07:49:08.292Z,59.45
2023-05-12T07:51:35.362Z,58.67
2023-05-12T07:54:02.143Z,59.61
2023-05-12T07:56:28.901Z,58.69
2023-05-12T07:58:56.312Z,58.43
2023-05-12T08:01:24.121Z,59.05
2023-05-12T08:03:51.658Z,58.41
2023-05-12T08:06:18.747Z,57.76
2023-05-12T08:08:45.565Z,57.88
2023-05-12T08:11:12.820Z,57.36
2023-05-12T08:13:39.720Z,57.91
2023-05-12T08:16:06.454Z,57.40
2023-05-12T08:18:33.124Z,58.22
2023-05-12T08:20:59.859Z,56.72
2023-05-12T08:23:26.697Z,57.18
2023-05-12T08:25:53.471Z,56.95
2023-05-12T08:28:20.089Z,56.91
2023-05-12T08:30:46.829Z,57.29
2023-05-12T08:33:13.933Z,56.96
2023-05-12T08:35:40.921Z,58.18
2023-05-12T08:38:07.798Z,57.54
2023-05-12T08:40:53.930Z,57.18
2023-05-12T08:43:38.360Z,58.18
2023-05-12T08:46:06.282Z,57.93
2023-05-12T08:48:34.672Z,57.94
2023-05-12T08:51:03.312Z,57.45
2023-05-12T08:53:30.926Z,54.90
2023-05-12T08:58:48.517Z,58.25
2023-05-12T09:01:16.798Z,56.55
2023-05-12T09:03:44.222Z,56.83
2023-05-12T09:06:12.153Z,56.83
2023-05-12T09:08:40.494Z,56.83
2023-05-12T09:11:11.539Z,57.46
2023-05-12T09:13:50.870Z,57.31
2023-05-12T09:16:22.426Z,56.81
2023-05-12T09:19:00.257Z,56.69
2023-05-12T09:21:28.485Z,56.49
2023-05-12T09:24:06.852Z,56.13
2023-05-12T09:26:48.721Z,57.71
2023-05-12T09:29:27.754Z,56.78
2023-05-12T09:31:59.595Z,56.40
2023-05-12T09:34:31.296Z,55.99
2023-05-12T09:37:01.040Z,56.48
2023-05-12T09:39:29.188Z,56.35
2023-05-12T09:41:56.353Z,56.80
2023-05-12T09:44:24.493Z,56.69
2023-05-12T09:46:51.789Z,55.10
2023-05-12T09:49:26.806Z,55.72
2023-05-12T09:51:56.216Z,55.57
2023-05-12T09:54:27.529Z,54.79
2023-05-12T09:57:06.867Z,55.67
2023-05-12T09:59:36.436Z,54.73
2023-05-12T10:02:06.273Z,55.08
2023-05-12T10:05:06.289Z,55.12
2023-05-12T10:07:34.281Z,55.70
2023-05-12T10:10:04.436Z,55.41
2023-05-12T10:12:31.572Z,54.15
2023-05-12T10:14:59.666Z,53.65
2023-05-12T10:17:26.926Z,55.30
2023-05-12T10:19:54.979Z,54.55
2023-05-12T10:22:21.856Z,53.70
2023-05-12T10:24:49.369Z,54.57
2023-05-12T10:27:17.210Z,53.12
2023-05-12T10:29:44.594Z,53.67
2023-05-12T10:32:11.532Z,53.27
2023-05-12T10:34:40.776Z,53.74
2023-05-12T10:37:11.382Z,52.37
2023-05-12T10:39:47.581Z,53.46
2023-05-12T10:42:17.369Z,53.22
2023-05-12T10:44:52.721Z,52.51
2023-05-12T10:47:26.762Z,53.42
2023-05-12T10:49:58.706Z,54.21
2023-05-12T10:52:25.882Z,52.97
2023-05-12T10:55:00.384Z,52.43
2023-05-12T10:57:27.653Z,53.11
2023-05-12T10:59:59.812Z,52.21
2023-05-12T11:02:35.934Z,52.16
2023-05-12T11:05:10.568Z,52.89
2023-05-12T11:07:38.045Z,52.06
2023-05-12T11:10:06.070Z,52.06
2023-05-12T11:12:38.092Z,52.26
2023-05-12T11:15:06.686Z,52.37
2023-05-12T11:17:34.084Z,53.20
2023-05-12T11:20:01.593Z,53.28
2023-05-12T11:22:29.250Z,52.17
2023-05-12T11:24:56.217Z,53.09
2023-05-12T11:27:23.804Z,51.64
2023-05-12T11:29:59.428Z,51.95
2023-05-12T11:32:26.744Z,52.44
2023-05-12T11:34:53.488Z,52.03
2023-05-12T11:37:27.323Z,51.42
2023-05-12T11:39:54.107Z,53.13
2023-05-12T11:42:22.902Z,52.80
2023-05-12T11:44:51.935Z,51.84
2023-05-12T11:47:19.972Z,51.49
2023-05-12T11:49:55.164Z,52.14
2023-05-12T11:52:24.323Z,51.49
2023-05-12T11:54:52.956Z,51.53
2023-05-12T11:57:44.280Z,51.01
2023-05-12T12:00:27.328Z,50.78
2023-05-12T12:03:05.771Z,51.03
2023-05-12T12:05:32.543Z,51.80
2023-05-12T12:08:14.189Z,51.30
2023-05-12T12:10:46.815Z,50.96
2023-05-12T12:13:20.294Z,51.44
2023-05-12T12:15:47.396Z,51.44
2023-05-12T12:18:15.198Z,51.50
2023-05-12T12:20:42.670Z,51.70
2023-05-12T12:23:11.067Z,51.14
2023-05-12T12:25:38.046Z,51.98
2023-05-12T12:28:05.254Z,51.50
2023-05-12T12:30:32.138Z,51.70
2023-05-12T12:32:58.930Z,51.08
2023-05-12T12:35:25.921Z,52.28
2023-05-12T12:37:52.799Z,50.92
2023-05-12T12:40:20.283Z,51.17
2023-05-12T12:42:47.866Z,51.61
2023-05-12T12:45:14.812Z,51.45
2023-05-12T12:47:41.679Z,51.34
2023-05-12T12:50:10.627Z,50.97
2023-05-12T12:52:38.627Z,50.62
2023-05-12T12:55:06.832Z,51.88
2023-05-12T12:57:33.644Z,50.97
2023-05-12T13:00:00.369Z,50.77
2023-05-12T13:02:35.851Z,50.15
2023-05-12T13:05:08.262Z,50.23
2023-05-12T13:07:35.025Z,50.95
2023-05-12T13:10:01.711Z,50.21
2023-05-12T13:12:30.563Z,51.10
2023-05-12T13:14:57.437Z,50.00
2023-05-12T13:17:24.084Z,50.92
2023-05-12T13:19:50.789Z,50.19
2023-05-12T13:22:17.549Z,50.04
2023-05-12T13:24:44.470Z,49.08
2023-05-12T13:27:11.305Z,49.77
2023-05-12T13:29:39.859Z,49.44
2023-05-12T13:32:07.090Z,47.80
2023-05-12T13:34:33.958Z,49.07
2023-05-12T13:37:00.851Z,48.84
2023-05-12T13:39:27.748Z,48.64
2023-05-12T13:41:54.633Z,49.08
2023-05-12T13:44:21.401Z,50.20
2023-05-12T13:46:48.436Z,50.15
2023-05-12T13:49:15.130Z,49.75
2023-05-12T13:51:42.000Z,48.68
2023-05-12T13:54:08.637Z,49.89
2023-05-12T13:56:35.444Z,49.88
2023-05-12T13:59:02.167Z,49.95
2023-05-12T14:01:28.782Z,48.96
2023-05-12T14:03:55.540Z,50.14
2023-05-12T14:06:22.296Z,50.16
2023-05-12T14:08:49.439Z,49.97
2023-05-12T14:11:16.835Z,48.78
2023-05-12T14:13:43.761Z,49.21
2023-05-12T14:16:13.258Z,49.61
2023-05-12T14:18:42.588Z,49.07
2023-05-12T14:21:10.187Z,49.11
2023-05-12T14:23:37.703Z,50.01
2023-05-12T14:26:05.016Z,50.40
2023-05-12T14:28:31.703Z,49.62
2023-05-12T14:30:58.486Z,50.76
2023-05-12T14:33:25.260Z,49.12
2023-05-12T14:36:03.045Z,50.18
2023-05-12T14:38:33.540Z,48.84
2023-05-12T14:41:00.184Z,49.91
2023-05-12T14:43:26.842Z,50.01
2023-05-12T14:45:54.768Z,50.96
2023-05-12T14:48:23.346Z,48.57
2023-05-12T14:50:53.950Z,47.70
2023-05-12T14:53:20.899Z,48.80
2023-05-12T14:55:49.126Z,49.59
2023-05-12T14:58:17.669Z,49.25
2023-05-12T15:00:44.945Z,48.78
2023-05-12T15:03:11.893Z,49.16
2023-05-12T15:05:56.897Z,48.66
2023-05-12T15:08:25.541Z,49.16
2023-05-12T15:10:52.199Z,48.56
2023-05-12T15:13:20.484Z,49.17
2023-05-12T15:15:47.208Z,49.26
2023-05-12T15:18:14.288Z,49.51
2023-05-12T15:20:40.973Z,49.44
2023-05-12T15:23:07.734Z,49.73
2023-05-12T15:25:34.658Z,49.67
2023-05-12T15:28:01.421Z,49.40
2023-05-12T15:30:28.059Z,50.44
2023-05-12T15:32:54.816Z,49.77
2023-05-12T15:35:21.684Z,50.35
2023-05-12T15:37:49.001Z,49.54
2023-05-12T15:40:15.964Z,49.99
2023-05-12T15:42:42.685Z,49.87
2023-05-12T15:45:09.862Z,50.92
2023-05-12T15:47:36.704Z,50.97
2023-05-12T15:50:04.316Z,50.14
2023-05-12T15:52:31.132Z,50.27
2023-05-12T15:54:57.955Z,49.79
2023-05-12T15:57:24.715Z,50.63
2023-05-12T15:59:57.546Z,51.35
2023-05-12T16:02:24.520Z,51.51
2023-05-12T16:04:51.174Z,51.68
2023-05-12T16:07:17.976Z,51.89
2023-05-12T16:09:44.687Z,51.87
2023-05-12T16:12:11.796Z,52.10
2023-05-12T16:14:38.680Z,51.56
2023-05-12T16:17:05.451Z,50.07
2023-05-12T16:19:32.301Z,50.28
2023-05-12T16:22:00.366Z,50.07
2023-05-12T16:24:28.736Z,50.43
2023-05-12T16:26:56.232Z,50.36
2023-05-12T16:29:22.914Z,50.65
2023-05-12T16:31:49.905Z,49.28
2023-05-12T16:34:16.631Z,50.66
2023-05-12T16:36:43.387Z,51.02
2023-05-12T16:39:10.341Z,50.79
2023-05-12T16:41:37.310Z,51.29
2023-05-12T16:44:04.470Z,50.89
2023-05-12T16:46:32.785Z,50.73
2023-05-12T16:48:59.566Z,51.10
2023-05-12T16:51:30.415Z,51.44
2023-05-12T16:53:57.683Z,51.14
2023-05-12T16:56:25.902Z,51.87
2023-05-12T16:58:52.601Z,51.78
2023-05-12T17:01:19.288Z,52.63
2023-05-12T17:03:46.199Z,51.74
2023-05-12T17:06:13.170Z,52.87
2023-05-12T17:08:39.886Z,52.56
2023-05-12T17:11:06.687Z,52.55
2023-05-12T17:13:36.116Z,52.48
2023-05-12T17:16:02.950Z,52.79
2023-05-12T17:18:30.549Z,52.81
2023-05-12T17:20:57.286Z,53.21
2023-05-12T17:23:24.242Z,53.37
2023-05-12T17:25:50.923Z,53.51
2023-05-12T17:28:17.679Z,53.83
2023-05-12T17:30:44.336Z,53.78
2023-05-12T17:33:11.420Z,54.07
2023-05-12T17:35:38.360Z,53.45
2023-05-12T17:38:05.204Z,53.63
2023-05-12T17:40:31.988Z,53.87
2023-05-12T17:42:58.664Z,53.69
2023-05-12T17:45:28.316Z,53.30
2023-05-12T17:47:55.506Z,53.98
2023-05-12T17:50:22.261Z,54.65
2023-05-12T17:52:49.164Z,54.48
2023-05-12T17:55:16.228Z,54.28
2023-05-12T17:57:42.820Z,54.62
2023-05-12T18:00:10.576Z,55.17
2023-05-12T18:02:43.782Z,55.11
2023-05-12T18:05:10.819Z,55.27
2023-05-12T18:07:37.692Z,55.53
2023-05-12T18:10:08.118Z,55.33
2023-05-12T18:12:35.153Z,55.92
2023-05-12T18:15:02.442Z,55.46
2023-05-12T18:17:31.155Z,55.75
2023-05-12T18:19:58.252Z,55.65
2023-05-12T18:22:25.068Z,55.68
2023-05-12T18:24:51.788Z,55.65
2023-05-12T18:27:18.628Z,55.24
2023-05-12T18:29:45.500Z,55.76
2023-05-12T18:32:12.396Z,56.29
2023-05-12T18:34:39.258Z,56.75
2023-05-12T18:37:06.141Z,56.99
2023-05-12T18:39:33.003Z,57.44
2023-05-12T18:41:59.789Z,57.38
2023-05-12T18:44:26.525Z,57.01
2023-05-12T18:46:53.318Z,56.84
2023-05-12T18:49:20.159Z,56.72
2023-05-12T18:51:46.966Z,56.74
2023-05-12T18:54:13.709Z,57.06
2023-05-12T18:56:40.702Z,56.99
2023-05-12T18:59:07.516Z,57.27
2023-05-12T19:01:34.243Z,56.50
2023-05-12T19:04:00.898Z,56.13
2023-05-12T19:06:27.980Z,55.71
2023-05-12T19:08:54.782Z,56.34
2023-05-12T19:11:21.516Z,56.51
2023-05-12T19:13:50.705Z,56.83
2023-05-12T19:16:18.106Z,56.74
2023-05-12T19:18:46.352Z,56.23
2023-05-12T19:21:23.767Z,56.50
2023-05-12T19:24:04.404Z,57.12
2023-05-12T19:26:43.493Z,57.02
2023-05-12T19:29:16.817Z,57.66
2023-05-12T19:32:12.402Z,56.75
2023-05-12T19:34:49.919Z,57.29
2023-05-12T19:37:29.899Z,57.77
2023-05-12T19:39:56.732Z,58.36
2023-05-12T19:42:23.450Z,58.61
2023-05-12T19:44:50.655Z,58.56
2023-05-12T19:47:17.540Z,59.23
2023-05-12T19:49:44.416Z,58.78
2023-05-12T19:52:11.393Z,58.87
2023-05-12T19:54:41.594Z,58.84
2023-05-12T19:57:11.799Z,58.50
2023-05-12T19:59:39.554Z,58.23
2023-05-12T20:02:14.154Z,58.13
2023-05-12T20:04:41.182Z,57.84
2023-05-12T20:07:07.908Z,58.65
2023-05-12T20:09:34.538Z,59.33
2023-05-12T20:12:01.242Z,59.53
2023-05-12T20:14:27.816Z,59.55
2023-05-12T20:16:55.668Z,59.61
2023-05-12T20:19:22.384Z,59.29
2023-05-12T20:21:49.048Z,59.49
2023-05-12T20:24:15.679Z,59.52
2023-05-12T20:26:42.577Z,59.78
2023-05-12T20:29:09.142Z,60.29
2023-05-12T20:31:35.834Z,60.00
2023-05-12T20:34:02.723Z,60.56
2023-05-12T20:36:29.372Z,61.12
2023-05-12T20:38:56.197Z,61.59
2023-05-12T20:41:22.883Z,62.51
2023-05-12T20:43:49.580Z,62.16
2023-05-12T20:46:16.503Z,63.65
2023-05-12T20:48:43.309Z,63.71
2023-05-12T20:51:11.769Z,63.71
2023-05-12T20:53:38.977Z,63.75
2023-05-12T20:56:08.349Z,64.25
2023-05-12T20:58:35.296Z,63.57
2023-05-12T21:01:02.006Z,62.96
2023-05-12T21:03:29.224Z,63.60
2023-05-12T21:05:55.987Z,63.49
2023-05-12T21:08:22.722Z,63.98
2023-05-12T21:10:49.454Z,63.99
2023-05-12T21:13:16.141Z,64.60
2023-05-12T21:15:42.938Z,64.20
2023-05-12T21:18:09.620Z,63.90
2023-05-12T21:20:36.850Z,63.90
2023-05-12T21:23:09.286Z,62.59
2023-05-12T21:25:36.069Z,62.63
2023-05-12T21:28:02.972Z,62.79
2023-05-12T21:30:29.656Z,62.69
2023-05-12T21:32:56.361Z,61.78
2023-05-12T21:35:23.105Z,61.15
2023-05-12T21:37:49.923Z,61.17
2023-05-12T21:40:16.818Z,60.68
2023-05-12T21:42:43.480Z,61.22
2023-05-12T21:45:10.450Z,60.55
2023-05-12T21:47:37.220Z,60.51
2023-05-12T21:50:04.509Z,60.76
2023-05-12T21:52:31.146Z,60.53
2023-05-12T21:54:58.098Z,60.93
2023-05-12T21:57:24.832Z,61.44
2023-05-12T21:59:51.545Z,61.91
2023-05-12T22:02:18.227Z,62.08
2023-05-12T22:04:44.974Z,64.04
2023-05-12T22:07:11.613Z,64.58
2023-05-12T22:09:38.289Z,64.33
2023-05-12T22:12:05.436Z,65.06
2023-05-12T22:14:32.113Z,64.44
2023-05-12T22:16:58.875Z,64.80
2023-05-12T22:19:25.503Z,65.05
2023-05-12T22:21:52.881Z,65.16
2023-05-12T22:24:19.552Z,65.37
2023-05-12T22:26:46.494Z,65.93
2023-05-12T22:29:13.574Z,65.57
2023-05-12T22:31:40.445Z,66.36
2023-05-12T22:34:07.143Z,65.75
2023-05-12T22:36:34.009Z,66.44
2023-05-12T22:39:00.683Z,64.95
2023-05-12T22:41:27.337Z,65.37
2023-05-12T22:43:54.040Z,65.82
2023-05-12T22:46:21.676Z,66.13
2023-05-12T22:48:49.909Z,65.40
2023-05-12T22:51:16.696Z,66.29
2023-05-12T22:53:43.364Z,66.43
2023-05-12T22:56:10.137Z,66.79
2023-05-12T22:58:36.895Z,66.47
2023-05-12T23:01:03.757Z,66.50
2023-05-12T23:03:30.792Z,66.33
2023-05-12T23:05:57.517Z,66.35
2023-05-12T23:08:24.225Z,66.83
2023-05-12T23:10:50.822Z,65.55
2023-05-12T23:13:17.565Z,65.88
2023-05-12T23:15:44.283Z,66.10
2023-05-12T23:18:11.070Z,65.70
2023-05-12T23:20:37.853Z,66.00
2023-05-12T23:23:04.563Z,66.50
2023-05-12T23:25:31.721Z,66.38
2023-05-12T23:27:58.566Z,65.98
2023-05-12T23:30:25.393Z,66.69
2023-05-12T23:32:52.175Z,65.92
2023-05-12T23:35:18.973Z,66.75
2023-05-12T23:37:45.714Z,67.50
2023-05-12T23:40:12.465Z,67.19
2023-05-12T23:42:39.132Z,66.38
2023-05-12T23:45:06.560Z,66.87
2023-05-12T23:47:33.318Z,68.09
2023-05-12T23:49:59.983Z,68.14
2023-05-12T23:52:26.606Z,68.03
2023-05-12T23:54:53.265Z,67.88
2023-05-12T23:57:20.037Z,68.34
2023-05-12T23:59:46.715Z,68.49
